Terminal Aerodrome Forecast
Issued by NWS

Current Version | Previous Version | Text Only | Print | Product List | Glossary On
Versions: 1 2 3 4 5 6 7 8 9 10 11 12 13 14 15 16 17 18 19 20 21 22 23
000 FTUS41 KILN 262300 TAFLCK TAF KLCK 262332Z 2700/2724 17006KT P6SM BKN150 FM270400 18005KT P6SM BKN040 FM271300 19010KT P6SM BKN060 FM271900 20010KT P6SM VCSH OVC040=

USA.gov is the U.S. government's official web portal to all federal, state and local government web resources and services.